Time;durP1;ratioP1;P1;durP2;ratioP2;P2;SDS_P1;SDS_P2;PMS_P1;PMS_P2;Temp;Humidity;BMP_temperature;BMP_pressure;BME280_temperature;BME280_humidity;BME280_pressure;Samples;Min_cycle;Max_cycle;Signal;HPM_P1;HPM_P2
2023/04/13 00:01:10;;;;;;;1.50;0.52;;;9.10;95.50;;;;;;5095263;28;20720;-70
2023/04/13 00:03:37;;;;;;;2.40;0.65;;;9.10;95.20;;;;;;5094673;28;20184;-70
2023/04/13 00:06:09;;;;;;;1.50;0.50;;;9.10;95.10;;;;;;5094787;28;20185;-69
2023/04/13 00:08:38;;;;;;;3.25;0.60;;;9.10;95.00;;;;;;5094731;28;20272;-70
2023/04/13 00:11:06;;;;;;;1.50;0.50;;;9.10;94.70;;;;;;5094776;28;20189;-69
2023/04/13 00:13:41;;;;;;;1.52;0.60;;;9.10;94.40;;;;;;5094893;28;20212;-71
2023/04/13 00:16:09;;;;;;;1.50;0.50;;;9.10;94.00;;;;;;5094719;28;20188;-69
2023/04/13 00:18:36;;;;;;;1.50;0.52;;;9.00;93.60;;;;;;5091955;28;20211;-72
2023/04/13 00:21:04;;;;;;;1.50;0.60;;;9.00;92.90;;;;;;5095491;28;20189;-69
2023/04/13 00:23:31;;;;;;;1.50;0.50;;;9.00;92.20;;;;;;5094489;28;20193;-69
2023/04/13 00:26:00;;;;;;;1.60;0.70;;;9.00;91.60;;;;;;5094429;28;20200;-69
2023/04/13 00:28:28;;;;;;;2.45;0.60;;;8.90;91.60;;;;;;5094784;28;20213;-69
2023/04/13 00:30:55;;;;;;;1.50;0.60;;;8.90;91.50;;;;;;5094910;28;20192;-69
2023/04/13 00:33:22;;;;;;;1.50;0.50;;;8.80;91.20;;;;;;5093920;28;21097;-70
2023/04/13 00:35:50;;;;;;;1.50;0.70;;;8.80;90.90;;;;;;5094478;28;20189;-70
2023/04/13 00:38:18;;;;;;;1.60;0.60;;;8.70;91.10;;;;;;5094167;28;20760;-70
2023/04/13 00:40:45;;;;;;;1.90;0.70;;;8.70;91.50;;;;;;5094074;28;20652;-69
2023/04/13 00:43:13;;;;;;;2.35;0.75;;;8.70;91.60;;;;;;5094323;28;20185;-70
2023/04/13 00:45:41;;;;;;;1.90;0.60;;;8.60;91.20;;;;;;5094183;28;20196;-70
2023/04/13 00:48:10;;;;;;;1.80;0.70;;;8.60;90.40;;;;;;5094216;28;20185;-70
2023/04/13 00:50:37;;;;;;;1.70;0.68;;;8.40;90.50;;;;;;5094408;28;20206;-70
2023/04/13 00:53:05;;;;;;;2.05;0.70;;;8.40;91.30;;;;;;5093943;28;20209;-70
2023/04/13 00:55:38;;;;;;;1.70;0.63;;;8.40;90.50;;;;;;5093890;28;20185;-70
2023/04/13 00:58:06;;;;;;;1.50;0.65;;;8.40;90.30;;;;;;5093999;28;20185;-70
2023/04/13 01:00:37;;;;;;;1.63;0.68;;;8.30;90.70;;;;;;5094093;28;20737;-70
2023/04/13 01:03:05;;;;;;;1.60;0.60;;;8.30;90.90;;;;;;5093733;28;20238;-70
2023/04/13 01:05:40;;;;;;;1.60;0.60;;;8.30;90.60;;;;;;5093550;28;20192;-70
2023/04/13 01:08:16;;;;;;;1.60;0.60;;;8.20;90.40;;;;;;5094671;28;20181;-69
2023/04/13 01:10:49;;;;;;;1.60;0.60;;;8.20;90.70;;;;;;5093116;28;20596;-70
2023/04/13 01:13:23;;;;;;;1.80;0.68;;;8.20;90.50;;;;;;5093462;28;20212;-70
2023/04/13 01:15:56;;;;;;;1.98;0.70;;;8.20;90.90;;;;;;5093763;28;20189;-69
2023/04/13 01:18:26;;;;;;;1.60;0.60;;;8.20;90.90;;;;;;5093950;28;20192;-69
2023/04/13 01:20:54;;;;;;;1.50;0.50;;;8.20;91.00;;;;;;5091932;28;20714;-70
2023/04/13 01:23:34;;;;;;;5.20;1.70;;;8.10;90.80;;;;;;5093708;28;20192;-70
2023/04/13 01:26:07;;;;;;;1.50;0.60;;;8.10;90.90;;;;;;5093678;28;20541;-69
2023/04/13 01:28:38;;;;;;;4.43;0.70;;;8.10;91.00;;;;;;5093936;28;20177;-70
2023/04/13 01:31:10;;;;;;;1.70;0.60;;;8.10;90.20;;;;;;5093871;28;20193;-70
2023/04/13 01:33:39;;;;;;;2.35;0.95;;;8.00;90.60;;;;;;5093043;28;20300;-69
2023/04/13 01:36:08;;;;;;;2.15;0.70;;;8.00;90.30;;;;;;5090528;28;20188;-70
2023/04/13 01:38:35;;;;;;;3.15;0.65;;;8.00;89.60;;;;;;5093015;28;20191;-71
2023/04/13 01:41:02;;;;;;;1.50;0.68;;;8.10;88.70;;;;;;5093339;28;20223;-69
2023/04/13 01:43:30;;;;;;;1.50;0.50;;;8.10;87.30;;;;;;5093039;28;20193;-69
2023/04/13 01:46:04;;;;;;;1.73;0.70;;;8.10;87.30;;;;;;5093317;28;20188;-69
2023/04/13 01:48:36;;;;;;;1.50;0.60;;;8.00;87.20;;;;;;5092971;28;20659;-69
2023/04/13 01:51:08;;;;;;;2.42;0.70;;;8.00;88.10;;;;;;5093447;28;20251;-70
2023/04/13 01:53:40;;;;;;;1.90;0.70;;;7.90;89.20;;;;;;5092835;28;20212;-69
2023/04/13 01:56:08;;;;;;;1.98;0.70;;;7.90;89.40;;;;;;5092870;28;20185;-70
2023/04/13 01:58:39;;;;;;;1.50;0.50;;;7.90;89.20;;;;;;5093037;28;20208;-69
2023/04/13 02:01:08;;;;;;;1.50;0.60;;;7.90;89.40;;;;;;5092550;28;20211;-69
2023/04/13 02:03:37;;;;;;;1.52;0.60;;;7.90;89.50;;;;;;5092773;28;20189;-70
2023/04/13 02:06:06;;;;;;;1.60;0.60;;;7.90;89.60;;;;;;5092768;28;20185;-70
2023/04/13 02:08:33;;;;;;;3.80;0.60;;;7.80;89.40;;;;;;5092539;28;20215;-69
2023/04/13 02:11:02;;;;;;;1.70;0.68;;;7.80;89.40;;;;;;5093012;28;20720;-70
2023/04/13 02:13:30;;;;;;;1.80;0.80;;;7.80;88.60;;;;;;5092708;28;20266;-69
2023/04/13 02:15:58;;;;;;;1.60;0.75;;;7.80;88.20;;;;;;5092879;28;20185;-70
2023/04/13 02:18:27;;;;;;;1.80;0.80;;;7.80;89.20;;;;;;5092576;28;20189;-69
2023/04/13 02:21:01;;;;;;;2.20;0.90;;;7.80;89.50;;;;;;5092411;28;20555;-69
2023/04/13 02:23:28;;;;;;;1.60;0.60;;;7.70;89.20;;;;;;5093093;28;20192;-69
2023/04/13 02:25:55;;;;;;;1.70;0.75;;;7.60;90.00;;;;;;5092211;28;20643;-69
2023/04/13 02:28:22;;;;;;;1.60;0.60;;;7.40;90.60;;;;;;5092742;28;20533;-69
2023/04/13 02:30:50;;;;;;;1.80;0.70;;;7.50;90.90;;;;;;5091619;28;20185;-70
2023/04/13 02:33:18;;;;;;;2.60;0.80;;;7.50;90.90;;;;;;5091137;28;20213;-69
2023/04/13 02:35:47;;;;;;;1.67;0.70;;;7.50;90.70;;;;;;5092687;28;20185;-70
2023/04/13 02:38:15;;;;;;;1.75;0.70;;;7.50;91.00;;;;;;5092385;28;20540;-69
2023/04/13 02:40:43;;;;;;;1.77;0.80;;;7.50;90.90;;;;;;5092162;28;20193;-69
2023/04/13 02:43:11;;;;;;;1.60;0.60;;;7.50;91.00;;;;;;5092813;28;20292;-74
2023/04/13 02:45:39;;;;;;;1.40;0.50;;;7.60;91.40;;;;;;5091822;28;20231;-70
2023/04/13 02:48:08;;;;;;;1.55;0.57;;;7.60;90.70;;;;;;5092515;28;20189;-69
2023/04/13 02:50:35;;;;;;;1.85;0.70;;;7.60;90.70;;;;;;5091908;28;20196;-70
2023/04/13 02:53:04;;;;;;;1.58;0.63;;;7.60;90.70;;;;;;5092067;28;20248;-69
2023/04/13 02:55:31;;;;;;;1.60;0.60;;;7.60;91.00;;;;;;5092332;28;20182;-70
2023/04/13 02:57:58;;;;;;;1.58;0.60;;;7.60;90.90;;;;;;5091880;28;20534;-73
2023/04/13 03:00:27;;;;;;;1.50;0.70;;;7.60;91.00;;;;;;5091168;28;20221;-70
2023/04/13 03:02:54;;;;;;;1.60;0.60;;;7.70;91.10;;;;;;5092214;28;20189;-70
2023/04/13 03:05:21;;;;;;;1.60;0.60;;;7.70;91.40;;;;;;5091985;28;20188;-69
2023/04/13 03:07:49;;;;;;;1.60;0.60;;;7.70;91.40;;;;;;5092431;28;20235;-70
2023/04/13 03:10:18;;;;;;;1.60;0.60;;;7.70;91.20;;;;;;5092276;28;20177;-69
2023/04/13 03:12:45;;;;;;;1.70;0.70;;;7.70;91.30;;;;;;5092189;28;20193;-70
2023/04/13 03:15:13;;;;;;;1.50;0.50;;;7.70;91.40;;;;;;5091876;28;20220;-69
2023/04/13 03:17:42;;;;;;;1.70;0.80;;;7.70;91.80;;;;;;5092100;28;20198;-69
2023/04/13 03:20:12;;;;;;;1.65;0.80;;;7.70;91.70;;;;;;5091782;28;20193;-69
2023/04/13 03:22:39;;;;;;;1.70;0.60;;;7.70;91.50;;;;;;5092449;28;20193;-70
2023/04/13 03:25:07;;;;;;;2.13;0.65;;;7.60;91.70;;;;;;5091532;28;20648;-70
2023/04/13 03:27:36;;;;;;;1.70;0.70;;;7.60;91.80;;;;;;5092180;28;20197;-70
2023/04/13 03:30:03;;;;;;;1.50;0.52;;;7.60;91.50;;;;;;5091847;28;20549;-70
2023/04/13 03:32:31;;;;;;;1.70;0.60;;;7.60;91.50;;;;;;5092169;28;20643;-70
2023/04/13 03:34:59;;;;;;;1.60;0.60;;;7.60;91.40;;;;;;5092153;28;20216;-70
2023/04/13 03:37:28;;;;;;;1.55;0.60;;;7.60;91.30;;;;;;5072146;28;20196;-70
2023/04/13 03:39:55;;;;;;;2.17;0.70;;;7.60;91.10;;;;;;5072080;28;20615;-70
2023/04/13 03:42:23;;;;;;;1.60;0.70;;;7.50;90.80;;;;;;5079970;28;20276;-70
2023/04/13 03:44:51;;;;;;;1.60;0.60;;;7.50;91.00;;;;;;5093722;28;20278;-69
2023/04/13 03:47:18;;;;;;;1.70;0.60;;;7.50;91.20;;;;;;5095174;28;20193;-69
2023/04/13 03:49:46;;;;;;;2.20;0.63;;;7.40;91.10;;;;;;5095523;28;20197;-71
2023/04/13 03:52:13;;;;;;;1.70;0.70;;;7.40;90.90;;;;;;5094919;28;20200;-69
2023/04/13 03:54:40;;;;;;;1.80;0.90;;;7.40;90.90;;;;;;5095375;28;20224;-70
2023/04/13 03:57:07;;;;;;;2.22;1.42;;;7.40;90.90;;;;;;5095643;28;20201;-70
2023/04/13 03:59:34;;;;;;;3.25;0.82;;;7.40;90.50;;;;;;5095119;28;20217;-70
2023/04/13 04:02:03;;;;;;;2.40;0.75;;;7.30;90.40;;;;;;5095366;28;20189;-70
2023/04/13 04:04:30;;;;;;;2.17;1.13;;;7.30;90.20;;;;;;5094668;28;20185;-70
2023/04/13 04:06:58;;;;;;;1.60;0.65;;;7.20;90.50;;;;;;5095143;28;20217;-70
2023/04/13 04:09:26;;;;;;;1.60;0.70;;;7.10;90.80;;;;;;5095010;28;20277;-70
2023/04/13 04:11:53;;;;;;;2.10;1.20;;;6.90;91.10;;;;;;5094937;28;20212;-69
2023/04/13 04:14:21;;;;;;;2.03;1.60;;;6.90;91.50;;;;;;5094707;28;20224;-69
2023/04/13 04:16:48;;;;;;;1.73;0.80;;;6.70;92.20;;;;;;5092795;28;20276;-70
2023/04/13 04:19:23;;;;;;;1.90;0.82;;;6.80;92.60;;;;;;5095048;28;20587;-69
2023/04/13 04:21:51;;;;;;;2.40;0.65;;;6.80;92.70;;;;;;5094362;28;20559;-69
2023/04/13 04:24:21;;;;;;;2.05;0.80;;;6.70;92.50;;;;;;5094501;28;20193;-70
2023/04/13 04:26:49;;;;;;;1.88;0.77;;;6.70;92.30;;;;;;5095243;28;20196;-70
2023/04/13 04:29:20;;;;;;;2.10;0.90;;;6.60;92.60;;;;;;5094559;28;20189;-70
2023/04/13 04:31:51;;;;;;;1.50;0.60;;;6.50;92.30;;;;;;5094923;28;20196;-69
2023/04/13 04:34:18;;;;;;;2.42;0.68;;;6.50;91.60;;;;;;5094531;28;20205;-69
2023/04/13 04:36:49;;;;;;;3.20;1.50;;;6.50;91.00;;;;;;5094611;28;20189;-69
2023/04/13 04:39:20;;;;;;;2.10;0.90;;;6.50;90.70;;;;;;5094661;28;20181;-70
2023/04/13 04:41:48;;;;;;;2.00;0.65;;;6.50;90.60;;;;;;5094899;28;20666;-70
2023/04/13 04:44:16;;;;;;;1.85;0.85;;;6.50;90.70;;;;;;5094490;28;20185;-69
2023/04/13 04:46:43;;;;;;;2.03;0.90;;;6.40;90.70;;;;;;5094568;28;20189;-69
2023/04/13 04:49:10;;;;;;;2.15;0.68;;;6.50;90.10;;;;;;5094317;28;20251;-69
2023/04/13 04:51:38;;;;;;;2.97;1.15;;;6.40;90.20;;;;;;5094671;28;20189;-69
2023/04/13 04:54:06;;;;;;;2.03;0.80;;;6.40;90.20;;;;;;5094341;28;20286;-69
2023/04/13 04:56:34;;;;;;;2.80;1.38;;;6.30;90.40;;;;;;5092964;28;20199;-69
2023/04/13 04:59:01;;;;;;;2.40;0.90;;;6.30;90.60;;;;;;5093611;28;20571;-70
2023/04/13 05:01:28;;;;;;;3.53;1.50;;;6.30;90.20;;;;;;5094457;28;20192;-69
2023/04/13 05:03:55;;;;;;;3.15;0.85;;;6.20;90.60;;;;;;5094089;28;20181;-70
2023/04/13 05:06:22;;;;;;;1.80;0.70;;;6.20;90.40;;;;;;5093724;28;20202;-70
2023/04/13 05:08:50;;;;;;;2.00;0.80;;;6.20;90.80;;;;;;5093685;28;20189;-70
2023/04/13 05:11:19;;;;;;;1.90;0.85;;;6.20;90.90;;;;;;5094212;28;20193;-69
2023/04/13 05:13:46;;;;;;;2.40;0.75;;;6.20;90.30;;;;;;5093575;28;20578;-71
2023/04/13 05:16:13;;;;;;;2.25;0.85;;;6.10;90.20;;;;;;5093936;28;20185;-69
2023/04/13 05:18:45;;;;;;;2.55;1.00;;;6.10;90.70;;;;;;5093619;28;20185;-70
2023/04/13 05:21:13;;;;;;;2.10;1.80;;;6.10;90.90;;;;;;5073928;28;20725;-70
2023/04/13 05:23:41;;;;;;;2.30;0.90;;;6.20;90.30;;;;;;5076614;28;20223;-69
2023/04/13 05:26:11;;;;;;;2.03;0.82;;;6.20;90.30;;;;;;5093982;28;20228;-70
2023/04/13 05:28:40;;;;;;;1.77;0.80;;;6.20;90.60;;;;;;5093903;28;20254;-70
2023/04/13 05:31:09;;;;;;;3.58;0.80;;;6.20;90.10;;;;;;5093925;28;20194;-70
2023/04/13 05:33:36;;;;;;;2.17;0.80;;;6.30;89.50;;;;;;5092997;28;20193;-70
2023/04/13 05:36:05;;;;;;;1.60;0.70;;;6.30;90.10;;;;;;5093935;28;20200;-70
2023/04/13 05:38:33;;;;;;;5.90;3.40;;;6.30;89.50;;;;;;5091458;28;20648;-71
2023/04/13 05:41:01;;;;;;;5.97;2.45;;;6.30;89.90;;;;;;5093795;28;20189;-70
2023/04/13 05:43:29;;;;;;;6.80;2.15;;;6.30;89.90;;;;;;5093170;28;20185;-70
2023/04/13 05:45:57;;;;;;;3.30;1.20;;;6.40;90.10;;;;;;5093791;28;20276;-70
2023/04/13 05:48:25;;;;;;;2.30;1.30;;;6.50;88.80;;;;;;5093135;28;20194;-69
2023/04/13 05:50:57;;;;;;;2.40;1.10;;;6.40;88.10;;;;;;5093617;28;20224;-70
2023/04/13 05:53:24;;;;;;;2.75;1.63;;;6.50;88.60;;;;;;5092987;28;20177;-70
2023/04/13 05:55:51;;;;;;;2.38;1.30;;;6.60;88.60;;;;;;5093423;28;20221;-70
2023/04/13 05:58:18;;;;;;;2.13;1.40;;;6.70;87.00;;;;;;5093047;28;20185;-70
2023/04/13 06:00:46;;;;;;;3.97;1.05;;;6.70;87.20;;;;;;5093720;28;20690;-69
2023/04/13 06:03:15;;;;;;;2.55;0.80;;;6.70;85.40;;;;;;5092794;28;20231;-69
2023/04/13 06:05:43;;;;;;;4.07;1.25;;;6.70;83.90;;;;;;5093190;28;20211;-69
2023/04/13 06:08:10;;;;;;;2.30;0.80;;;6.80;83.30;;;;;;5092086;28;20632;-69
2023/04/13 06:10:37;;;;;;;2.08;0.77;;;6.80;82.80;;;;;;5093698;28;20188;-70
2023/04/13 06:13:04;;;;;;;2.10;1.10;;;6.90;82.60;;;;;;5090207;28;20193;-69
2023/04/13 06:15:31;;;;;;;2.17;0.85;;;6.90;82.40;;;;;;5092144;28;20244;-70
2023/04/13 06:17:58;;;;;;;2.20;1.00;;;7.00;82.30;;;;;;5092377;28;20193;-71
2023/04/13 06:20:27;;;;;;;2.45;0.80;;;7.00;81.00;;;;;;5092818;28;20224;-70
2023/04/13 06:22:53;;;;;;;2.08;0.85;;;7.10;81.80;;;;;;5092577;28;20189;-70
2023/04/13 06:25:21;;;;;;;3.35;1.00;;;7.20;80.60;;;;;;5091428;28;20254;-70
2023/04/13 06:27:48;;;;;;;4.10;1.30;;;7.30;81.00;;;;;;5092487;28;20703;-70
2023/04/13 06:30:15;;;;;;;2.60;0.90;;;7.40;80.70;;;;;;5091699;28;20188;-70
2023/04/13 06:32:42;;;;;;;2.78;1.00;;;7.50;80.80;;;;;;5092310;28;20192;-69
2023/04/13 06:35:11;;;;;;;2.80;0.80;;;7.60;80.70;;;;;;5092057;28;20216;-70
2023/04/13 06:37:39;;;;;;;4.10;1.00;;;7.70;80.10;;;;;;5086698;28;20584;-69
2023/04/13 06:40:11;;;;;;;2.10;1.35;;;7.80;79.70;;;;;;5088289;28;20246;-69
2023/04/13 06:42:38;;;;;;;2.65;1.10;;;7.90;78.40;;;;;;5086321;28;20264;-70
2023/04/13 06:45:07;;;;;;;5.35;1.30;;;8.00;78.30;;;;;;5091608;28;20237;-72
2023/04/13 06:47:35;;;;;;;4.57;1.73;;;8.10;78.70;;;;;;5092042;28;20192;-71
2023/04/13 06:50:05;;;;;;;4.93;2.50;;;8.20;79.40;;;;;;5092498;28;20192;-70
2023/04/13 06:52:32;;;;;;;5.65;3.03;;;8.30;78.60;;;;;;5091152;28;20734;-70
2023/04/13 06:55:04;;;;;;;4.57;1.63;;;8.40;79.30;;;;;;5092640;28;20233;-70
2023/04/13 06:57:31;;;;;;;2.30;1.00;;;8.50;79.00;;;;;;5092637;28;20193;-70
2023/04/13 06:59:58;;;;;;;3.75;1.35;;;8.60;76.80;;;;;;5092785;28;20221;-70
2023/04/13 07:02:26;;;;;;;3.17;1.08;;;8.80;75.70;;;;;;5093100;28;20185;-70
2023/04/13 07:04:53;;;;;;;3.47;1.20;;;9.00;76.10;;;;;;5093119;28;20683;-70
2023/04/13 07:07:20;;;;;;;4.88;1.30;;;9.10;72.70;;;;;;5093071;28;20204;-68
2023/04/13 07:09:47;;;;;;;2.92;1.17;;;9.20;72.00;;;;;;5092536;28;20189;-68
2023/04/13 07:12:15;;;;;;;3.75;0.93;;;9.40;72.50;;;;;;5092999;28;20583;-69
2023/04/13 07:14:45;;;;;;;3.92;1.15;;;9.50;70.00;;;;;;5092813;28;20213;-69
2023/04/13 07:17:12;;;;;;;3.70;0.90;;;9.60;69.30;;;;;;5092793;28;20189;-70
2023/04/13 07:19:43;;;;;;;3.33;1.00;;;9.70;70.10;;;;;;5094446;28;20217;-69
2023/04/13 07:22:10;;;;;;;3.90;1.60;;;9.80;69.80;;;;;;5096943;28;20211;-69
2023/04/13 07:24:37;;;;;;;7.45;1.38;;;9.90;68.50;;;;;;5096867;28;20193;-70
2023/04/13 07:27:04;;;;;;;3.80;1.65;;;10.10;67.10;;;;;;5096568;28;20242;-69
2023/04/13 07:29:32;;;;;;;2.63;1.20;;;10.30;67.50;;;;;;5096831;28;20200;-70
2023/04/13 07:32:01;;;;;;;2.45;0.90;;;10.60;67.20;;;;;;5096703;28;20657;-69
2023/04/13 07:34:28;;;;;;;3.83;1.17;;;10.90;61.90;;;;;;5096678;28;20705;-69
2023/04/13 07:36:55;;;;;;;2.22;0.90;;;11.20;60.40;;;;;;5096415;28;20560;-69
2023/04/13 07:39:22;;;;;;;7.32;1.50;;;11.40;60.20;;;;;;5096523;28;20193;-69
2023/04/13 07:41:49;;;;;;;5.95;1.08;;;11.70;58.80;;;;;;5096602;28;20228;-69
2023/04/13 07:44:17;;;;;;;3.65;1.13;;;12.10;56.70;;;;;;5096518;28;20220;-70
2023/04/13 07:46:45;;;;;;;7.38;1.27;;;12.70;55.50;;;;;;5096332;28;20196;-69
2023/04/13 07:49:12;;;;;;;3.03;1.25;;;13.60;52.90;;;;;;5096377;28;20224;-69
2023/04/13 07:51:39;;;;;;;7.03;1.05;;;14.30;50.90;;;;;;5096323;28;20689;-69
2023/04/13 07:54:06;;;;;;;1.90;0.77;;;15.00;48.80;;;;;;5096267;28;20228;-69
2023/04/13 07:56:34;;;;;;;3.63;0.87;;;15.30;47.60;;;;;;5096531;28;20453;-70
2023/04/13 07:59:01;;;;;;;3.70;1.03;;;15.70;46.20;;;;;;5096057;28;20469;-70
2023/04/13 08:01:28;;;;;;;2.90;1.50;;;15.70;43.60;;;;;;5096435;28;20423;-69
2023/04/13 08:03:57;;;;;;;4.50;1.97;;;15.50;43.80;;;;;;5095662;28;20522;-69
2023/04/13 08:06:25;;;;;;;4.07;0.90;;;15.70;43.30;;;;;;5095941;28;20468;-69
2023/04/13 08:08:53;;;;;;;3.27;1.40;;;15.40;43.60;;;;;;5095829;28;20474;-69
2023/04/13 08:11:20;;;;;;;3.33;1.23;;;15.10;43.70;;;;;;5095849;28;20473;-70
2023/04/13 08:13:47;;;;;;;4.00;0.90;;;14.70;43.50;;;;;;5095671;28;20435;-69
2023/04/13 08:16:14;;;;;;;3.30;1.10;;;14.30;43.70;;;;;;5095564;28;20866;-69
2023/04/13 08:18:41;;;;;;;4.10;1.23;;;14.00;44.20;;;;;;5095668;28;20443;-70
2023/04/13 08:21:11;;;;;;;2.50;1.00;;;13.90;44.10;;;;;;5095763;28;20447;-70
2023/04/13 08:23:40;;;;;;;2.00;1.23;;;13.80;44.50;;;;;;5095960;28;20492;-71
2023/04/13 08:26:07;;;;;;;4.03;1.20;;;13.80;44.00;;;;;;5095697;28;20476;-70
2023/04/13 08:28:35;;;;;;;3.70;0.93;;;14.10;44.40;;;;;;5095509;28;20228;-70
2023/04/13 08:31:02;;;;;;;1.93;1.00;;;14.50;43.20;;;;;;5095466;28;20489;-70
2023/04/13 08:33:30;;;;;;;2.10;1.23;;;14.90;41.60;;;;;;5095646;28;20439;-69
2023/04/13 08:35:57;;;;;;;6.57;2.97;;;14.90;40.30;;;;;;5095378;28;20479;-69
2023/04/13 08:38:25;;;;;;;2.90;1.27;;;14.50;41.00;;;;;;5095258;28;20431;-69
2023/04/13 08:40:53;;;;;;;2.10;1.00;;;14.30;40.90;;;;;;5095128;28;20475;-69
2023/04/13 08:43:20;;;;;;;6.37;1.13;;;14.10;40.60;;;;;;5095074;28;20470;-69
2023/04/13 08:45:47;;;;;;;2.03;1.10;;;14.10;41.60;;;;;;5095318;28;20439;-69
2023/04/13 08:48:17;;;;;;;2.17;0.90;;;14.40;39.20;;;;;;5095224;28;20884;-69
2023/04/13 08:50:45;;;;;;;3.27;0.97;;;14.80;40.10;;;;;;5095382;28;20805;-69
2023/04/13 08:53:12;;;;;;;3.20;0.97;;;15.20;40.00;;;;;;5094984;28;20518;-70
2023/04/13 08:55:45;;;;;;;5.33;1.20;;;15.80;39.20;;;;;;5095060;28;20540;-70
2023/04/13 08:58:13;;;;;;;3.40;1.23;;;16.00;38.00;;;;;;5095127;28;20445;-70
2023/04/13 09:00:42;;;;;;;5.80;1.17;;;16.10;37.70;;;;;;5094947;28;20467;-70
2023/04/13 09:03:12;;;;;;;2.33;0.83;;;16.50;37.10;;;;;;5094721;28;20542;-70
2023/04/13 09:05:41;;;;;;;2.97;0.90;;;17.00;34.00;;;;;;5098165;28;20439;-69
2023/04/13 09:08:12;;;;;;;2.03;0.90;;;17.30;32.90;;;;;;5094242;28;20439;-69
2023/04/13 09:10:39;;;;;;;2.10;1.10;;;17.40;33.00;;;;;;5103589;28;20438;-69
2023/04/13 09:13:08;;;;;;;3.70;1.20;;;17.30;32.50;;;;;;5099349;28;20783;-70
2023/04/13 09:15:35;;;;;;;3.47;1.13;;;17.10;31.30;;;;;;5106885;28;20486;-70
2023/04/13 09:18:09;;;;;;;3.63;1.13;;;17.00;32.40;;;;;;5106991;28;20427;-70
2023/04/13 09:20:37;;;;;;;3.30;1.20;;;17.30;33.60;;;;;;5093859;28;20982;-70
2023/04/13 09:23:13;;;;;;;5.60;1.20;;;17.30;31.20;;;;;;5096461;28;20447;-70
2023/04/13 09:25:40;;;;;;;4.27;1.10;;;17.60;30.40;;;;;;5099640;28;20504;-70
2023/04/13 09:28:16;;;;;;;2.53;1.17;;;17.40;29.30;;;;;;5097648;28;20471;-70
2023/04/13 09:30:43;;;;;;;4.53;1.27;;;17.20;29.60;;;;;;5093835;28;20817;-70
2023/04/13 09:33:11;;;;;;;1.90;0.90;;;17.50;31.40;;;;;;5093265;28;20456;-70
2023/04/13 09:35:39;;;;;;;2.87;1.30;;;18.60;29.80;;;;;;5097426;28;20489;-70
2023/04/13 09:38:07;;;;;;;3.57;1.10;;;20.20;29.10;;;;;;5093692;28;20439;-70
2023/04/13 09:40:36;;;;;;;3.43;1.20;;;22.30;29.00;;;;;;5097402;28;20496;-70
2023/04/13 09:43:06;;;;;;;3.50;1.07;;;23.80;25.20;;;;;;5096950;28;20446;-70
2023/04/13 09:45:36;;;;;;;2.20;0.90;;;23.70;23.60;;;;;;5093257;28;20439;-70
2023/04/13 09:48:04;;;;;;;2.43;0.70;;;23.40;23.50;;;;;;5095475;28;20442;-70
2023/04/13 09:50:35;;;;;;;2.83;1.23;;;23.80;23.20;;;;;;5093449;28;20512;-71
2023/04/13 09:53:04;;;;;;;2.83;1.07;;;23.90;22.60;;;;;;5093267;28;20442;-71
2023/04/13 09:55:32;;;;;;;2.60;0.90;;;24.00;22.40;;;;;;5097420;28;20564;-70
2023/04/13 09:58:09;;;;;;;3.07;1.10;;;23.60;21.80;;;;;;5093274;28;20538;-70
2023/04/13 10:00:38;;;;;;;3.80;1.00;;;22.90;22.40;;;;;;5092973;28;20566;-71
2023/04/13 10:03:09;;;;;;;2.53;1.17;;;22.00;23.60;;;;;;5092782;28;20458;-70
2023/04/13 10:05:37;;;;;;;4.00;1.33;;;21.20;24.50;;;;;;5095857;28;20438;-70
2023/04/13 10:08:05;;;;;;;3.13;1.50;;;20.40;24.20;;;;;;5093145;28;20481;-70
2023/04/13 10:10:32;;;;;;;4.33;0.90;;;19.70;25.40;;;;;;5093093;28;20453;-70
2023/04/13 10:13:04;;;;;;;3.17;1.00;;;19.20;25.80;;;;;;5093114;28;20527;-70
2023/04/13 10:15:45;;;;;;;2.37;0.90;;;18.60;26.20;;;;;;5088900;28;20467;-72
2023/04/13 10:18:25;;;;;;;7.73;0.83;;;17.90;27.50;;;;;;5090562;28;20443;-70
2023/04/13 10:20:54;;;;;;;2.33;1.00;;;17.20;28.00;;;;;;5093016;28;20439;-70
2023/04/13 10:23:21;;;;;;;3.40;0.90;;;16.70;27.70;;;;;;5092719;28;20469;-70
2023/04/13 10:26:02;;;;;;;3.93;1.07;;;16.30;28.90;;;;;;5092316;28;20471;-70
2023/04/13 10:28:29;;;;;;;2.83;1.00;;;15.90;29.40;;;;;;5092810;28;20435;-70
2023/04/13 10:30:58;;;;;;;4.33;1.40;;;15.60;29.90;;;;;;5092537;28;20855;-70
2023/04/13 10:33:27;;;;;;;3.17;1.40;;;15.40;30.90;;;;;;5092161;28;20475;-69
2023/04/13 10:35:56;;;;;;;2.67;1.20;;;15.30;31.50;;;;;;5091892;28;20493;-69
2023/04/13 10:38:23;;;;;;;2.93;1.17;;;15.20;31.80;;;;;;5092742;28;20443;-69
2023/04/13 10:40:50;;;;;;;2.50;1.10;;;15.10;31.40;;;;;;5092557;28;20443;-69
2023/04/13 10:43:28;;;;;;;3.37;1.17;;;15.00;32.20;;;;;;5094986;28;20913;-70
2023/04/13 10:46:12;;;;;;;6.67;1.57;;;15.00;30.60;;;;;;5096497;28;20823;-69
2023/04/13 10:48:41;;;;;;;4.60;1.20;;;14.90;30.10;;;;;;5092580;28;20529;-70
2023/04/13 10:51:08;;;;;;;4.20;1.50;;;14.80;30.70;;;;;;5093087;28;20527;-70
2023/04/13 10:53:35;;;;;;;3.30;1.27;;;14.70;31.00;;;;;;5087998;28;20467;-70
2023/04/13 10:56:03;;;;;;;3.03;1.40;;;14.50;31.00;;;;;;5098482;28;20992;-70
2023/04/13 10:58:32;;;;;;;7.53;1.20;;;14.30;31.80;;;;;;5097372;28;20504;-70
2023/04/13 11:00:58;;;;;;;3.30;1.07;;;14.20;32.00;;;;;;5096686;28;20447;-70
2023/04/13 11:03:29;;;;;;;2.57;1.10;;;14.10;32.50;;;;;;5100557;28;20993;-69
2023/04/13 11:05:57;;;;;;;3.10;1.57;;;14.00;33.30;;;;;;5099998;28;20593;-70
2023/04/13 11:08:26;;;;;;;2.37;1.33;;;13.90;33.20;;;;;;5100680;28;20438;-70
2023/04/13 11:10:55;;;;;;;6.80;1.43;;;13.90;33.10;;;;;;5096319;28;20435;-70
2023/04/13 11:13:24;;;;;;;2.50;1.13;;;13.80;33.50;;;;;;5095988;28;20451;-70
2023/04/13 11:15:51;;;;;;;6.63;1.57;;;13.70;34.70;;;;;;5094979;28;20486;-70
2023/04/13 11:18:26;;;;;;;2.00;1.20;;;13.60;34.90;;;;;;5095672;28;20469;-69
2023/04/13 11:20:54;;;;;;;2.80;1.10;;;13.60;33.70;;;;;;5096209;28;20447;-70
2023/04/13 11:23:22;;;;;;;7.20;1.63;;;13.50;34.20;;;;;;5095804;28;20486;-70
2023/04/13 11:25:53;;;;;;;2.57;1.00;;;13.40;34.90;;;;;;5092831;28;20786;-70
2023/04/13 11:28:22;;;;;;;4.63;1.23;;;13.40;35.20;;;;;;5102521;28;20513;-71
2023/04/13 11:30:54;;;;;;;1.73;0.80;;;13.30;34.30;;;;;;5093058;28;20453;-70
2023/04/13 11:33:25;;;;;;;3.60;1.27;;;13.30;33.70;;;;;;5094907;28;20530;-70
2023/04/13 11:35:55;;;;;;;2.80;1.27;;;13.30;33.50;;;;;;5095124;28;20565;-70
2023/04/13 11:38:23;;;;;;;3.87;2.00;;;13.30;34.60;;;;;;5096526;28;20443;-70
2023/04/13 11:40:50;;;;;;;6.30;1.37;;;13.30;33.90;;;;;;5093918;28;20446;-72
2023/04/13 11:43:19;;;;;;;2.90;1.50;;;13.20;33.80;;;;;;5093741;28;20443;-70
2023/04/13 11:45:46;;;;;;;2.63;1.60;;;13.10;34.20;;;;;;5088445;28;20439;-70
2023/04/13 11:48:14;;;;;;;5.03;1.30;;;13.10;35.00;;;;;;5094866;28;20211;-70
2023/04/13 11:50:43;;;;;;;3.07;1.40;;;13.00;35.20;;;;;;5092492;28;20450;-70
2023/04/13 11:53:11;;;;;;;3.60;0.97;;;13.00;35.30;;;;;;5094812;28;20439;-70
2023/04/13 11:55:40;;;;;;;2.10;1.10;;;12.90;35.10;;;;;;5097896;28;20462;-70
2023/04/13 11:58:09;;;;;;;4.50;1.20;;;12.90;34.70;;;;;;5093118;28;20435;-70
2023/04/13 12:00:40;;;;;;;2.07;1.07;;;12.80;34.80;;;;;;5094196;28;20235;-71
2023/04/13 12:03:13;;;;;;;3.35;1.00;;;12.70;35.00;;;;;;5098790;28;20453;-71
2023/04/13 12:05:41;;;;;;;4.78;1.30;;;12.60;34.80;;;;;;5093715;28;20189;-70
2023/04/13 12:08:08;;;;;;;2.75;1.02;;;12.60;35.20;;;;;;5094810;28;20197;-70
2023/04/13 12:10:37;;;;;;;3.15;1.45;;;12.60;34.90;;;;;;5094353;28;20197;-70
2023/04/13 12:13:08;;;;;;;3.28;0.80;;;12.50;35.20;;;;;;5094138;28;20693;-70
2023/04/13 12:15:36;;;;;;;4.45;1.42;;;12.50;35.50;;;;;;5093836;28;20275;-71
2023/04/13 12:18:04;;;;;;;3.00;1.13;;;12.40;36.20;;;;;;5094373;28;20199;-70
2023/04/13 12:20:37;;;;;;;2.20;1.00;;;12.30;35.90;;;;;;5094440;28;20250;-70
2023/04/13 12:23:04;;;;;;;2.70;1.20;;;12.30;36.90;;;;;;5094903;28;20670;-73
2023/04/13 12:25:32;;;;;;;2.95;1.15;;;12.20;37.10;;;;;;5094975;28;20586;-70
2023/04/13 12:28:00;;;;;;;2.45;1.20;;;12.20;37.40;;;;;;5094973;28;20203;-73
2023/04/13 12:30:27;;;;;;;4.47;1.50;;;12.10;37.40;;;;;;5099253;28;20271;-70
2023/04/13 12:32:55;;;;;;;4.18;1.55;;;12.10;37.70;;;;;;5090552;28;20706;-70
2023/04/13 12:35:22;;;;;;;4.90;1.40;;;12.00;36.90;;;;;;5094478;28;20197;-70
2023/04/13 12:37:51;;;;;;;5.75;1.92;;;12.00;36.80;;;;;;5098653;28;20316;-70
2023/04/13 12:40:19;;;;;;;5.20;1.42;;;11.90;36.60;;;;;;5096940;28;20643;-70
2023/04/13 12:42:46;;;;;;;4.30;1.10;;;11.80;37.10;;;;;;5094634;28;20193;-70
2023/04/13 12:45:17;;;;;;;2.00;0.90;;;11.80;36.60;;;;;;5093989;28;20224;-70
2023/04/13 12:47:44;;;;;;;3.90;1.30;;;11.70;37.10;;;;;;5098685;28;20203;-70
2023/04/13 12:50:12;;;;;;;4.15;1.08;;;11.60;38.10;;;;;;5094341;28;20283;-70
2023/04/13 12:52:43;;;;;;;3.05;1.30;;;11.60;38.90;;;;;;5095645;28;20197;-70
2023/04/13 12:55:10;;;;;;;3.42;1.40;;;11.60;38.60;;;;;;5096188;28;20635;-70
2023/04/13 12:57:38;;;;;;;2.05;0.80;;;11.50;38.40;;;;;;5094471;28;20221;-70
2023/04/13 13:00:09;;;;;;;6.38;1.35;;;11.50;38.90;;;;;;5098034;28;20570;-70